• Join FlightAware (Why Join?)
  • Login
  • US Flag 
12:44AM EDT


 

Airport Tracker/Info


-or-


 

Live Flight TrackerFlight Track Log ✈ EJA996 ✈ 14-May-2013 ✈ KHPN - KBOS

Flight Track Log - Related Links

Times and Time Zones

All times are in EDT time to prevent confusion due to time zone crossing. See the EJA996 flight status page for this flight to view local times or setup timezone preferences in your user account.

Time Position Orientation Groundspeed Altitude Reporting Facility
EDT Latitude Longitude Course Direction KTS MPH feet Rate Location/Type
03:48PM 41.1000 -73.7667 304° West 211 243 4,200  Level New York TRACON
03:49PM 41.1333 -73.8333 304° West 267 307 9,300 3,000 Climbing New York TRACON
03:50PM 41.2000 -73.8000 21° North 296 341 10,500 1,800 Climbing New York TRACON
03:51PM 41.2333 -73.6833 69° East 363 418 13,100 2,280 Climbing New York TRACON
03:52PM 41.2933 -73.4483 71° East 405 466 16,700 1,920 Climbing Boston Center
03:53PM 41.3383 -73.3000 68° East 424 488 18,400 1,140 Climbing Boston Center
03:54PM 41.3750 -73.1539 71° East 444 511 19,000 240 Climbing Boston Center
03:55PM 41.4133 -72.9742 74° East 452 520 19,000  Level Boston Center
03:56PM 41.4431 -72.8250 75° East 457 526 19,000  Level Boston Center
03:57PM 41.4792 -72.6506 75° East 451 519 19,000  Level Boston Center
03:58PM 41.5106 -72.5011 74° East 451 519 19,000  Level Boston Center
03:59PM 41.5481 -72.3181 75° East 456 525 19,000  Level Boston Center
04:00PM 41.5789 -72.1681 75° East 456 525 19,000  Level Boston Center
04:01PM 41.6158 -71.9903 74° East 456 525 19,000  Level Boston Center
04:02PM 41.6422 -71.8456 76° East 451 519 19,000 -360 Level Boston Center
04:03PM 41.6786 -71.6647 75° East 451 519 18,300 -1,260 Descending Boston Center
04:05PM 41.7169 -71.4750 75° East 438 504 16,300 -1,920 Descending Boston Center
04:06PM 41.7617 -71.3492 64° Northeast 425 489 14,100 -2,460 Descending Boston Center
04:07PM 41.8353 -71.2308 50° Northeast 387 445 11,400 -2,100 Descending Boston Center
04:08PM 41.8928 -71.1489 47° Northeast 343 395 9,900 -1,800 Descending Boston Center
04:08PM 41.9333 -71.0833 50° Northeast 294 338 8,500 -1,920 Descending KA90
04:09PM 42.0000 -71.0000 43° Northeast 282 325 6,500 -1,200 Descending KA90
04:10PM 42.0500 -70.9500 37° Northeast 271 312 6,100 -900 Descending KA90
04:11PM 42.1333 -70.9500 360° North 259 298 4,800 -1,620 Descending KA90
04:12PM 42.2000 -70.9333 10° North 256 295 2,900 -1,680 Descending KA90
04:13PM 42.2667 -70.9333 360° North 241 277 1,600 -960 Descending KA90
04:14PM 42.3167 -70.9500 346° North 162 186 1,000 -600 Descending KA90